sensor_id;sensor_type;location;lat;lon;timestamp;P1;durP1;ratioP1;P2;durP2;ratioP2
26750;SDS011;14345;48.272;25.926;2022-08-19T00:01:31;8.52;;;7.28;;
26750;SDS011;14345;48.272;25.926;2022-08-19T00:03:58;8.70;;;6.78;;
26750;SDS011;14345;48.272;25.926;2022-08-19T00:06:24;8.32;;;7.07;;
26750;SDS011;14345;48.272;25.926;2022-08-19T00:08:51;9.90;;;6.75;;
26750;SDS011;14345;48.272;25.926;2022-08-19T00:11:17;9.50;;;7.68;;
26750;SDS011;14345;48.272;25.926;2022-08-19T00:13:43;8.48;;;6.93;;
26750;SDS011;14345;48.272;25.926;2022-08-19T00:16:11;11.77;;;7.15;;
26750;SDS011;14345;48.272;25.926;2022-08-19T00:18:37;11.25;;;7.57;;
26750;SDS011;14345;48.272;25.926;2022-08-19T00:21:03;10.70;;;8.32;;
26750;SDS011;14345;48.272;25.926;2022-08-19T00:23:33;8.73;;;7.40;;
26750;SDS011;14345;48.272;25.926;2022-08-19T00:26:01;9.55;;;7.72;;
26750;SDS011;14345;48.272;25.926;2022-08-19T00:28:27;15.25;;;8.25;;
26750;SDS011;14345;48.272;25.926;2022-08-19T00:30:53;11.80;;;8.70;;
26750;SDS011;14345;48.272;25.926;2022-08-19T00:33:20;12.50;;;7.70;;
26750;SDS011;14345;48.272;25.926;2022-08-19T00:35:46;8.90;;;7.05;;
26750;SDS011;14345;48.272;25.926;2022-08-19T00:38:13;9.88;;;7.25;;
26750;SDS011;14345;48.272;25.926;2022-08-19T00:40:39;8.70;;;6.85;;
26750;SDS011;14345;48.272;25.926;2022-08-19T00:43:11;7.43;;;6.13;;
26750;SDS011;14345;48.272;25.926;2022-08-19T00:45:38;6.87;;;6.23;;
26750;SDS011;14345;48.272;25.926;2022-08-19T00:48:07;9.90;;;6.63;;
26750;SDS011;14345;48.272;25.926;2022-08-19T00:50:33;7.82;;;6.18;;
26750;SDS011;14345;48.272;25.926;2022-08-19T00:53:00;8.25;;;6.45;;
26750;SDS011;14345;48.272;25.926;2022-08-19T00:55:29;8.23;;;6.60;;
26750;SDS011;14345;48.272;25.926;2022-08-19T00:57:57;7.60;;;6.68;;
26750;SDS011;14345;48.272;25.926;2022-08-19T01:00:25;9.05;;;7.18;;
26750;SDS011;14345;48.272;25.926;2022-08-19T01:02:51;7.57;;;6.53;;
26750;SDS011;14345;48.272;25.926;2022-08-19T01:05:20;9.60;;;7.15;;
26750;SDS011;14345;48.272;25.926;2022-08-19T01:07:47;13.10;;;8.55;;
26750;SDS011;14345;48.272;25.926;2022-08-19T01:10:19;9.80;;;8.20;;
26750;SDS011;14345;48.272;25.926;2022-08-19T01:12:46;9.70;;;8.20;;
26750;SDS011;14345;48.272;25.926;2022-08-19T01:15:14;8.98;;;7.38;;
26750;SDS011;14345;48.272;25.926;2022-08-19T01:17:41;11.63;;;6.50;;
26750;SDS011;14345;48.272;25.926;2022-08-19T01:20:12;9.00;;;7.40;;
26750;SDS011;14345;48.272;25.926;2022-08-19T01:22:41;9.38;;;7.60;;
26750;SDS011;14345;48.272;25.926;2022-08-19T01:25:08;8.63;;;6.43;;
26750;SDS011;14345;48.272;25.926;2022-08-19T01:27:39;9.45;;;7.25;;
26750;SDS011;14345;48.272;25.926;2022-08-19T01:30:06;8.52;;;6.90;;
26750;SDS011;14345;48.272;25.926;2022-08-19T01:32:32;11.82;;;7.38;;
26750;SDS011;14345;48.272;25.926;2022-08-19T01:34:58;8.68;;;6.97;;
26750;SDS011;14345;48.272;25.926;2022-08-19T01:37:26;9.70;;;7.72;;
26750;SDS011;14345;48.272;25.926;2022-08-19T01:39:52;8.90;;;8.00;;
26750;SDS011;14345;48.272;25.926;2022-08-19T01:42:18;14.43;;;8.40;;
26750;SDS011;14345;48.272;25.926;2022-08-19T01:44:44;10.45;;;8.35;;
26750;SDS011;14345;48.272;25.926;2022-08-19T01:47:10;10.00;;;7.32;;
26750;SDS011;14345;48.272;25.926;2022-08-19T01:49:37;9.73;;;8.00;;
26750;SDS011;14345;48.272;25.926;2022-08-19T01:52:03;9.55;;;8.00;;
26750;SDS011;14345;48.272;25.926;2022-08-19T01:54:30;10.05;;;8.10;;
26750;SDS011;14345;48.272;25.926;2022-08-19T01:57:02;12.98;;;7.90;;
26750;SDS011;14345;48.272;25.926;2022-08-19T01:59:29;9.82;;;8.32;;
26750;SDS011;14345;48.272;25.926;2022-08-19T02:01:56;11.05;;;8.18;;
26750;SDS011;14345;48.272;25.926;2022-08-19T02:04:22;11.60;;;9.07;;
26750;SDS011;14345;48.272;25.926;2022-08-19T02:06:50;10.73;;;7.30;;
26750;SDS011;14345;48.272;25.926;2022-08-19T02:09:16;13.23;;;8.30;;
26750;SDS011;14345;48.272;25.926;2022-08-19T02:11:42;11.60;;;9.80;;
26750;SDS011;14345;48.272;25.926;2022-08-19T02:14:08;10.95;;;8.68;;
26750;SDS011;14345;48.272;25.926;2022-08-19T02:16:34;11.15;;;8.05;;
26750;SDS011;14345;48.272;25.926;2022-08-19T02:19:01;15.00;;;9.38;;
26750;SDS011;14345;48.272;25.926;2022-08-19T02:21:28;10.68;;;9.15;;
26750;SDS011;14345;48.272;25.926;2022-08-19T02:23:54;9.85;;;8.80;;
26750;SDS011;14345;48.272;25.926;2022-08-19T02:26:20;14.32;;;10.57;;
26750;SDS011;14345;48.272;25.926;2022-08-19T02:28:46;15.52;;;10.57;;
26750;SDS011;14345;48.272;25.926;2022-08-19T02:31:14;12.68;;;9.55;;
26750;SDS011;14345;48.272;25.926;2022-08-19T02:33:41;11.45;;;9.65;;
26750;SDS011;14345;48.272;25.926;2022-08-19T02:36:07;11.68;;;9.82;;
26750;SDS011;14345;48.272;25.926;2022-08-19T02:38:34;10.32;;;9.10;;
26750;SDS011;14345;48.272;25.926;2022-08-19T02:41:02;10.77;;;9.32;;
26750;SDS011;14345;48.272;25.926;2022-08-19T02:43:29;11.93;;;9.95;;
26750;SDS011;14345;48.272;25.926;2022-08-19T02:45:55;12.48;;;9.75;;
26750;SDS011;14345;48.272;25.926;2022-08-19T02:48:22;11.68;;;9.35;;
26750;SDS011;14345;48.272;25.926;2022-08-19T02:50:51;11.43;;;8.68;;
26750;SDS011;14345;48.272;25.926;2022-08-19T02:53:24;12.38;;;9.88;;
26750;SDS011;14345;48.272;25.926;2022-08-19T02:55:50;12.13;;;10.38;;
26750;SDS011;14345;48.272;25.926;2022-08-19T02:58:17;15.25;;;11.25;;
26750;SDS011;14345;48.272;25.926;2022-08-19T03:00:45;14.55;;;11.00;;
26750;SDS011;14345;48.272;25.926;2022-08-19T03:03:11;15.68;;;11.60;;
26750;SDS011;14345;48.272;25.926;2022-08-19T03:05:38;12.85;;;9.68;;
26750;SDS011;14345;48.272;25.926;2022-08-19T03:08:05;9.60;;;8.40;;
26750;SDS011;14345;48.272;25.926;2022-08-19T03:10:32;11.60;;;9.15;;
26750;SDS011;14345;48.272;25.926;2022-08-19T03:12:58;13.40;;;10.85;;
26750;SDS011;14345;48.272;25.926;2022-08-19T03:15:24;15.55;;;12.60;;
26750;SDS011;14345;48.272;25.926;2022-08-19T03:17:51;14.38;;;12.70;;
26750;SDS011;14345;48.272;25.926;2022-08-19T03:20:17;13.13;;;10.80;;
26750;SDS011;14345;48.272;25.926;2022-08-19T03:22:43;16.25;;;12.50;;
26750;SDS011;14345;48.272;25.926;2022-08-19T03:25:09;17.60;;;11.93;;
26750;SDS011;14345;48.272;25.926;2022-08-19T03:27:37;15.13;;;11.13;;
26750;SDS011;14345;48.272;25.926;2022-08-19T03:30:03;11.80;;;9.65;;
26750;SDS011;14345;48.272;25.926;2022-08-19T03:32:29;20.50;;;11.60;;
26750;SDS011;14345;48.272;25.926;2022-08-19T03:34:55;14.93;;;11.27;;
26750;SDS011;14345;48.272;25.926;2022-08-19T03:37:21;16.25;;;11.07;;
26750;SDS011;14345;48.272;25.926;2022-08-19T03:39:47;16.38;;;11.40;;
26750;SDS011;14345;48.272;25.926;2022-08-19T03:42:13;13.07;;;10.73;;
26750;SDS011;14345;48.272;25.926;2022-08-19T03:44:41;16.05;;;12.40;;
26750;SDS011;14345;48.272;25.926;2022-08-19T03:47:09;17.00;;;10.75;;
26750;SDS011;14345;48.272;25.926;2022-08-19T03:49:40;14.65;;;10.20;;
26750;SDS011;14345;48.272;25.926;2022-08-19T03:52:06;15.15;;;11.05;;
26750;SDS011;14345;48.272;25.926;2022-08-19T03:54:33;15.73;;;10.90;;
26750;SDS011;14345;48.272;25.926;2022-08-19T03:56:59;10.63;;;9.52;;
26750;SDS011;14345;48.272;25.926;2022-08-19T03:59:27;10.43;;;9.32;;
26750;SDS011;14345;48.272;25.926;2022-08-19T04:01:54;11.88;;;9.32;;
26750;SDS011;14345;48.272;25.926;2022-08-19T04:04:20;11.80;;;10.05;;
26750;SDS011;14345;48.272;25.926;2022-08-19T04:06:46;13.82;;;10.23;;
26750;SDS011;14345;48.272;25.926;2022-08-19T04:09:12;12.13;;;9.93;;
26750;SDS011;14345;48.272;25.926;2022-08-19T04:11:49;11.85;;;10.02;;
26750;SDS011;14345;48.272;25.926;2022-08-19T04:14:18;14.20;;;9.85;;
26750;SDS011;14345;48.272;25.926;2022-08-19T04:16:45;13.38;;;9.52;;
26750;SDS011;14345;48.272;25.926;2022-08-19T04:19:12;11.65;;;9.40;;
26750;SDS011;14345;48.272;25.926;2022-08-19T04:21:38;11.10;;;9.90;;
26750;SDS011;14345;48.272;25.926;2022-08-19T04:24:05;11.18;;;9.65;;
26750;SDS011;14345;48.272;25.926;2022-08-19T04:26:34;15.82;;;10.02;;
26750;SDS011;14345;48.272;25.926;2022-08-19T04:29:01;12.23;;;9.77;;
26750;SDS011;14345;48.272;25.926;2022-08-19T04:31:28;11.07;;;9.98;;
26750;SDS011;14345;48.272;25.926;2022-08-19T04:33:56;10.68;;;9.25;;
26750;SDS011;14345;48.272;25.926;2022-08-19T04:36:26;15.20;;;9.82;;
26750;SDS011;14345;48.272;25.926;2022-08-19T04:38:56;13.80;;;10.13;;
26750;SDS011;14345;48.272;25.926;2022-08-19T04:41:23;11.48;;;9.13;;
26750;SDS011;14345;48.272;25.926;2022-08-19T04:44:08;11.57;;;10.15;;
26750;SDS011;14345;48.272;25.926;2022-08-19T04:46:34;10.85;;;9.18;;
26750;SDS011;14345;48.272;25.926;2022-08-19T04:49:01;11.27;;;9.68;;
26750;SDS011;14345;48.272;25.926;2022-08-19T04:51:27;11.88;;;8.88;;
26750;SDS011;14345;48.272;25.926;2022-08-19T04:53:56;8.60;;;7.72;;
26750;SDS011;14345;48.272;25.926;2022-08-19T04:56:22;10.85;;;8.80;;
26750;SDS011;14345;48.272;25.926;2022-08-19T04:58:51;12.52;;;8.95;;
26750;SDS011;14345;48.272;25.926;2022-08-19T05:01:19;9.23;;;7.68;;
26750;SDS011;14345;48.272;25.926;2022-08-19T05:03:46;14.20;;;8.75;;
26750;SDS011;14345;48.272;25.926;2022-08-19T05:06:13;8.95;;;8.02;;
26750;SDS011;14345;48.272;25.926;2022-08-19T05:08:40;11.93;;;8.57;;
26750;SDS011;14345;48.272;25.926;2022-08-19T05:11:18;11.95;;;8.57;;
26750;SDS011;14345;48.272;25.926;2022-08-19T05:13:47;12.30;;;8.10;;
26750;SDS011;14345;48.272;25.926;2022-08-19T05:16:15;12.63;;;8.27;;
26750;SDS011;14345;48.272;25.926;2022-08-19T05:18:42;11.38;;;8.88;;
26750;SDS011;14345;48.272;25.926;2022-08-19T05:21:27;10.25;;;8.25;;
26750;SDS011;14345;48.272;25.926;2022-08-19T05:24:13;13.15;;;8.80;;
26750;SDS011;14345;48.272;25.926;2022-08-19T05:26:40;14.32;;;8.40;;
26750;SDS011;14345;48.272;25.926;2022-08-19T05:29:07;9.50;;;8.38;;
26750;SDS011;14345;48.272;25.926;2022-08-19T05:31:33;13.23;;;9.00;;
26750;SDS011;14345;48.272;25.926;2022-08-19T05:34:00;12.63;;;9.65;;
26750;SDS011;14345;48.272;25.926;2022-08-19T05:36:27;11.07;;;9.43;;
26750;SDS011;14345;48.272;25.926;2022-08-19T05:38:53;9.75;;;8.20;;
26750;SDS011;14345;48.272;25.926;2022-08-19T05:41:20;12.25;;;8.38;;
26750;SDS011;14345;48.272;25.926;2022-08-19T05:43:48;10.50;;;8.15;;
26750;SDS011;14345;48.272;25.926;2022-08-19T05:46:16;11.68;;;9.02;;
26750;SDS011;14345;48.272;25.926;2022-08-19T05:48:43;13.75;;;10.10;;
26750;SDS011;14345;48.272;25.926;2022-08-19T05:51:09;10.63;;;9.50;;
26750;SDS011;14345;48.272;25.926;2022-08-19T05:53:36;9.52;;;8.52;;
26750;SDS011;14345;48.272;25.926;2022-08-19T05:56:06;9.05;;;7.85;;
26750;SDS011;14345;48.272;25.926;2022-08-19T05:58:33;11.65;;;9.02;;
26750;SDS011;14345;48.272;25.926;2022-08-19T06:00:59;11.23;;;8.43;;
26750;SDS011;14345;48.272;25.926;2022-08-19T06:03:33;14.80;;;8.75;;
26750;SDS011;14345;48.272;25.926;2022-08-19T06:06:01;9.48;;;8.35;;
26750;SDS011;14345;48.272;25.926;2022-08-19T06:08:27;9.45;;;7.78;;
26750;SDS011;14345;48.272;25.926;2022-08-19T06:10:54;11.73;;;8.93;;
26750;SDS011;14345;48.272;25.926;2022-08-19T06:13:20;12.52;;;9.23;;
26750;SDS011;14345;48.272;25.926;2022-08-19T06:15:48;13.07;;;9.15;;
26750;SDS011;14345;48.272;25.926;2022-08-19T06:18:14;13.70;;;8.55;;
26750;SDS011;14345;48.272;25.926;2022-08-19T06:20:41;10.40;;;8.68;;
26750;SDS011;14345;48.272;25.926;2022-08-19T06:23:07;10.20;;;8.20;;
26750;SDS011;14345;48.272;25.926;2022-08-19T06:25:34;11.50;;;8.65;;
26750;SDS011;14345;48.272;25.926;2022-08-19T06:28:00;10.73;;;8.73;;
26750;SDS011;14345;48.272;25.926;2022-08-19T06:30:26;12.60;;;9.13;;
26750;SDS011;14345;48.272;25.926;2022-08-19T06:32:52;13.35;;;9.23;;
26750;SDS011;14345;48.272;25.926;2022-08-19T06:35:19;12.63;;;8.95;;
26750;SDS011;14345;48.272;25.926;2022-08-19T06:37:45;10.38;;;8.75;;
26750;SDS011;14345;48.272;25.926;2022-08-19T06:40:11;12.68;;;8.65;;
26750;SDS011;14345;48.272;25.926;2022-08-19T06:42:37;13.18;;;8.88;;
26750;SDS011;14345;48.272;25.926;2022-08-19T06:45:04;10.77;;;8.55;;
26750;SDS011;14345;48.272;25.926;2022-08-19T06:47:30;9.52;;;7.93;;
26750;SDS011;14345;48.272;25.926;2022-08-19T06:49:57;10.18;;;8.18;;
26750;SDS011;14345;48.272;25.926;2022-08-19T06:52:27;9.80;;;7.80;;
26750;SDS011;14345;48.272;25.926;2022-08-19T06:54:54;8.65;;;7.40;;
26750;SDS011;14345;48.272;25.926;2022-08-19T06:57:21;9.48;;;7.22;;
26750;SDS011;14345;48.272;25.926;2022-08-19T06:59:47;12.20;;;9.13;;
26750;SDS011;14345;48.272;25.926;2022-08-19T07:02:13;10.00;;;8.98;;
26750;SDS011;14345;48.272;25.926;2022-08-19T07:04:39;12.77;;;8.15;;
26750;SDS011;14345;48.272;25.926;2022-08-19T07:07:07;8.95;;;7.28;;
26750;SDS011;14345;48.272;25.926;2022-08-19T07:09:34;11.05;;;7.68;;
26750;SDS011;14345;48.272;25.926;2022-08-19T07:12:02;13.18;;;8.60;;
26750;SDS011;14345;48.272;25.926;2022-08-19T07:14:28;11.98;;;8.52;;
26750;SDS011;14345;48.272;25.926;2022-08-19T07:16:55;10.82;;;7.57;;
26750;SDS011;14345;48.272;25.926;2022-08-19T07:19:23;7.78;;;6.80;;
26750;SDS011;14345;48.272;25.926;2022-08-19T07:21:50;9.73;;;7.63;;
26750;SDS011;14345;48.272;25.926;2022-08-19T07:24:21;12.82;;;8.40;;
26750;SDS011;14345;48.272;25.926;2022-08-19T07:26:49;12.27;;;7.88;;
26750;SDS011;14345;48.272;25.926;2022-08-19T07:29:16;11.48;;;7.63;;
26750;SDS011;14345;48.272;25.926;2022-08-19T07:31:42;12.70;;;7.40;;
26750;SDS011;14345;48.272;25.926;2022-08-19T07:34:11;9.00;;;7.80;;
26750;SDS011;14345;48.272;25.926;2022-08-19T07:36:39;8.98;;;7.18;;
26750;SDS011;14345;48.272;25.926;2022-08-19T07:39:11;11.85;;;8.00;;
26750;SDS011;14345;48.272;25.926;2022-08-19T07:41:38;9.85;;;7.13;;
26750;SDS011;14345;48.272;25.926;2022-08-19T07:44:04;8.65;;;7.32;;
26750;SDS011;14345;48.272;25.926;2022-08-19T07:46:33;10.05;;;7.85;;
26750;SDS011;14345;48.272;25.926;2022-08-19T07:49:00;14.60;;;9.05;;
26750;SDS011;14345;48.272;25.926;2022-08-19T07:51:27;11.75;;;8.80;;
26750;SDS011;14345;48.272;25.926;2022-08-19T07:53:54;11.13;;;8.82;;
26750;SDS011;14345;48.272;25.926;2022-08-19T07:56:20;11.13;;;8.60;;
26750;SDS011;14345;48.272;25.926;2022-08-19T07:58:48;13.15;;;8.95;;
26750;SDS011;14345;48.272;25.926;2022-08-19T08:01:16;12.13;;;8.73;;
26750;SDS011;14345;48.272;25.926;2022-08-19T08:03:42;11.70;;;8.63;;
26750;SDS011;14345;48.272;25.926;2022-08-19T08:06:27;10.93;;;9.05;;
26750;SDS011;14345;48.272;25.926;2022-08-19T08:09:14;12.90;;;9.20;;
26750;SDS011;14345;48.272;25.926;2022-08-19T08:11:54;10.45;;;8.90;;
26750;SDS011;14345;48.272;25.926;2022-08-19T08:14:41;11.57;;;8.57;;
26750;SDS011;14345;48.272;25.926;2022-08-19T08:17:09;10.25;;;8.95;;
26750;SDS011;14345;48.272;25.926;2022-08-19T08:19:35;10.60;;;9.50;;
26750;SDS011;14345;48.272;25.926;2022-08-19T08:22:02;9.27;;;8.30;;
26750;SDS011;14345;48.272;25.926;2022-08-19T08:24:31;10.43;;;8.82;;
26750;SDS011;14345;48.272;25.926;2022-08-19T08:26:58;8.40;;;7.13;;
26750;SDS011;14345;48.272;25.926;2022-08-19T08:29:25;8.40;;;7.35;;
26750;SDS011;14345;48.272;25.926;2022-08-19T08:31:52;9.35;;;7.47;;
26750;SDS011;14345;48.272;25.926;2022-08-19T08:34:19;7.93;;;6.13;;
26750;SDS011;14345;48.272;25.926;2022-08-19T08:36:45;9.00;;;6.35;;
26750;SDS011;14345;48.272;25.926;2022-08-19T08:39:13;14.10;;;6.80;;
26750;SDS011;14345;48.272;25.926;2022-08-19T08:44:31;11.05;;;7.25;;
26750;SDS011;14345;48.272;25.926;2022-08-19T08:46:58;7.47;;;6.70;;
26750;SDS011;14345;48.272;25.926;2022-08-19T08:52:00;8.23;;;7.13;;
26750;SDS011;14345;48.272;25.926;2022-08-19T08:54:40;10.77;;;7.57;;
26750;SDS011;14345;48.272;25.926;2022-08-19T08:57:18;8.57;;;7.63;;
26750;SDS011;14345;48.272;25.926;2022-08-19T08:59:46;8.50;;;6.93;;
26750;SDS011;14345;48.272;25.926;2022-08-19T09:02:15;12.38;;;8.48;;
26750;SDS011;14345;48.272;25.926;2022-08-19T09:04:41;8.63;;;7.72;;
26750;SDS011;14345;48.272;25.926;2022-08-19T09:07:16;10.82;;;7.55;;
26750;SDS011;14345;48.272;25.926;2022-08-19T09:09:48;8.23;;;6.45;;
26750;SDS011;14345;48.272;25.926;2022-08-19T09:17:16;10.02;;;7.10;;
26750;SDS011;14345;48.272;25.926;2022-08-19T09:19:53;9.77;;;6.57;;
26750;SDS011;14345;48.272;25.926;2022-08-19T09:22:20;8.85;;;6.55;;
26750;SDS011;14345;48.272;25.926;2022-08-19T09:24:48;8.48;;;6.65;;
26750;SDS011;14345;48.272;25.926;2022-08-19T09:27:14;5.47;;;4.93;;
26750;SDS011;14345;48.272;25.926;2022-08-19T09:29:40;7.80;;;5.32;;
26750;SDS011;14345;48.272;25.926;2022-08-19T09:32:06;6.95;;;5.18;;
26750;SDS011;14345;48.272;25.926;2022-08-19T09:34:32;6.35;;;5.20;;
26750;SDS011;14345;48.272;25.926;2022-08-19T09:36:58;10.52;;;6.85;;
26750;SDS011;14345;48.272;25.926;2022-08-19T09:39:25;7.68;;;5.65;;
26750;SDS011;14345;48.272;25.926;2022-08-19T09:41:51;7.32;;;5.22;;
26750;SDS011;14345;48.272;25.926;2022-08-19T09:44:18;6.97;;;5.03;;
26750;SDS011;14345;48.272;25.926;2022-08-19T09:46:48;6.05;;;4.40;;
26750;SDS011;14345;48.272;25.926;2022-08-19T09:49:16;9.02;;;5.00;;
26750;SDS011;14345;48.272;25.926;2022-08-19T09:51:42;4.82;;;3.67;;
26750;SDS011;14345;48.272;25.926;2022-08-19T09:54:09;5.07;;;4.57;;
26750;SDS011;14345;48.272;25.926;2022-08-19T09:56:35;7.68;;;5.00;;
26750;SDS011;14345;48.272;25.926;2022-08-19T09:59:02;9.75;;;4.82;;
26750;SDS011;14345;48.272;25.926;2022-08-19T10:01:29;5.53;;;4.00;;
26750;SDS011;14345;48.272;25.926;2022-08-19T10:03:56;4.90;;;3.85;;
26750;SDS011;14345;48.272;25.926;2022-08-19T10:06:24;7.47;;;3.85;;
26750;SDS011;14345;48.272;25.926;2022-08-19T10:08:51;5.53;;;4.57;;
26750;SDS011;14345;48.272;25.926;2022-08-19T10:11:18;6.22;;;4.30;;
26750;SDS011;14345;48.272;25.926;2022-08-19T10:13:45;5.88;;;4.15;;
26750;SDS011;14345;48.272;25.926;2022-08-19T10:16:15;5.93;;;4.15;;
26750;SDS011;14345;48.272;25.926;2022-08-19T10:18:43;6.25;;;4.20;;
26750;SDS011;14345;48.272;25.926;2022-08-19T10:21:11;5.68;;;3.55;;
26750;SDS011;14345;48.272;25.926;2022-08-19T10:23:38;5.82;;;4.10;;
26750;SDS011;14345;48.272;25.926;2022-08-19T10:26:05;4.07;;;3.25;;
26750;SDS011;14345;48.272;25.926;2022-08-19T10:28:35;5.47;;;3.45;;
26750;SDS011;14345;48.272;25.926;2022-08-19T10:31:05;4.38;;;3.53;;
26750;SDS011;14345;48.272;25.926;2022-08-19T10:33:31;4.63;;;3.45;;
26750;SDS011;14345;48.272;25.926;2022-08-19T10:36:04;7.15;;;3.53;;
26750;SDS011;14345;48.272;25.926;2022-08-19T10:38:32;4.93;;;3.70;;
26750;SDS011;14345;48.272;25.926;2022-08-19T10:41:06;5.15;;;3.40;;
26750;SDS011;14345;48.272;25.926;2022-08-19T10:43:35;5.35;;;3.28;;
26750;SDS011;14345;48.272;25.926;2022-08-19T10:46:04;4.47;;;3.10;;
26750;SDS011;14345;48.272;25.926;2022-08-19T10:48:30;4.65;;;2.90;;
26750;SDS011;14345;48.272;25.926;2022-08-19T10:50:57;2.97;;;2.60;;
26750;SDS011;14345;48.272;25.926;2022-08-19T10:53:42;5.07;;;2.83;;
26750;SDS011;14345;48.272;25.926;2022-08-19T10:56:08;5.22;;;2.85;;
26750;SDS011;14345;48.272;25.926;2022-08-19T10:58:53;3.05;;;2.75;;
26750;SDS011;14345;48.272;25.926;2022-08-19T11:01:19;3.50;;;2.70;;
26750;SDS011;14345;48.272;25.926;2022-08-19T11:03:45;6.35;;;2.50;;
26750;SDS011;14345;48.272;25.926;2022-08-19T11:06:11;5.78;;;3.00;;
26750;SDS011;14345;48.272;25.926;2022-08-19T11:08:38;4.88;;;3.10;;
26750;SDS011;14345;48.272;25.926;2022-08-19T11:11:05;6.72;;;2.90;;
26750;SDS011;14345;48.272;25.926;2022-08-19T11:13:34;5.25;;;2.90;;
26750;SDS011;14345;48.272;25.926;2022-08-19T11:18:33;5.78;;;2.90;;
26750;SDS011;14345;48.272;25.926;2022-08-19T11:21:08;9.00;;;6.60;;
26750;SDS011;14345;48.272;25.926;2022-08-19T11:23:35;10.65;;;7.57;;
26750;SDS011;14345;48.272;25.926;2022-08-19T11:26:01;6.00;;;5.35;;
26750;SDS011;14345;48.272;25.926;2022-08-19T11:28:27;9.40;;;7.28;;
26750;SDS011;14345;48.272;25.926;2022-08-19T11:30:53;7.93;;;3.72;;
26750;SDS011;14345;48.272;25.926;2022-08-19T11:33:20;5.22;;;3.63;;
26750;SDS011;14345;48.272;25.926;2022-08-19T11:35:46;4.65;;;3.10;;
26750;SDS011;14345;48.272;25.926;2022-08-19T11:38:12;4.43;;;2.85;;
26750;SDS011;14345;48.272;25.926;2022-08-19T11:40:39;4.28;;;2.20;;
26750;SDS011;14345;48.272;25.926;2022-08-19T11:43:07;5.45;;;2.95;;
26750;SDS011;14345;48.272;25.926;2022-08-19T11:45:34;4.45;;;2.10;;
26750;SDS011;14345;48.272;25.926;2022-08-19T11:48:01;5.30;;;2.58;;
26750;SDS011;14345;48.272;25.926;2022-08-19T11:50:28;4.32;;;2.55;;
26750;SDS011;14345;48.272;25.926;2022-08-19T11:52:55;3.70;;;2.47;;
26750;SDS011;14345;48.272;25.926;2022-08-19T11:55:21;2.28;;;2.00;;
26750;SDS011;14345;48.272;25.926;2022-08-19T11:57:48;2.65;;;2.33;;
26750;SDS011;14345;48.272;25.926;2022-08-19T12:00:14;2.03;;;1.83;;
26750;SDS011;14345;48.272;25.926;2022-08-19T12:02:40;5.20;;;2.60;;
26750;SDS011;14345;48.272;25.926;2022-08-19T12:05:07;3.55;;;1.92;;
26750;SDS011;14345;48.272;25.926;2022-08-19T12:07:33;4.88;;;1.95;;
26750;SDS011;14345;48.272;25.926;2022-08-19T12:10:00;4.05;;;2.30;;
26750;SDS011;14345;48.272;25.926;2022-08-19T12:12:26;3.15;;;1.92;;
26750;SDS011;14345;48.272;25.926;2022-08-19T12:14:53;3.28;;;1.75;;
26750;SDS011;14345;48.272;25.926;2022-08-19T12:17:27;5.18;;;2.13;;
26750;SDS011;14345;48.272;25.926;2022-08-19T12:19:55;3.50;;;2.10;;
26750;SDS011;14345;48.272;25.926;2022-08-19T12:22:22;4.90;;;2.10;;
26750;SDS011;14345;48.272;25.926;2022-08-19T12:24:48;7.30;;;2.00;;
26750;SDS011;14345;48.272;25.926;2022-08-19T12:27:17;4.63;;;1.90;;
26750;SDS011;14345;48.272;25.926;2022-08-19T12:29:43;3.88;;;1.80;;
26750;SDS011;14345;48.272;25.926;2022-08-19T12:32:09;6.55;;;2.30;;
26750;SDS011;14345;48.272;25.926;2022-08-19T12:34:36;4.70;;;2.30;;
26750;SDS011;14345;48.272;25.926;2022-08-19T12:37:03;3.05;;;2.13;;
26750;SDS011;14345;48.272;25.926;2022-08-19T12:39:29;4.82;;;1.70;;
26750;SDS011;14345;48.272;25.926;2022-08-19T12:41:56;3.08;;;1.67;;
26750;SDS011;14345;48.272;25.926;2022-08-19T12:44:22;2.47;;;1.92;;
26750;SDS011;14345;48.272;25.926;2022-08-19T12:46:49;2.75;;;1.80;;
26750;SDS011;14345;48.272;25.926;2022-08-19T12:49:15;3.63;;;2.15;;
26750;SDS011;14345;48.272;25.926;2022-08-19T12:51:42;3.95;;;2.17;;
26750;SDS011;14345;48.272;25.926;2022-08-19T12:54:08;3.60;;;2.58;;
26750;SDS011;14345;48.272;25.926;2022-08-19T12:56:34;25.48;;;22.80;;
26750;SDS011;14345;48.272;25.926;2022-08-19T12:59:02;11.15;;;9.60;;
26750;SDS011;14345;48.272;25.926;2022-08-19T13:01:29;5.78;;;4.10;;
26750;SDS011;14345;48.272;25.926;2022-08-19T13:03:57;4.40;;;2.75;;
26750;SDS011;14345;48.272;25.926;2022-08-19T13:06:24;3.70;;;1.80;;
26750;SDS011;14345;48.272;25.926;2022-08-19T13:08:50;8.65;;;2.20;;
26750;SDS011;14345;48.272;25.926;2022-08-19T13:11:17;1.67;;;1.58;;
26750;SDS011;14345;48.272;25.926;2022-08-19T13:13:45;2.55;;;1.70;;
26750;SDS011;14345;48.272;25.926;2022-08-19T13:16:12;4.72;;;1.50;;
26750;SDS011;14345;48.272;25.926;2022-08-19T13:18:39;1.85;;;1.42;;
26750;SDS011;14345;48.272;25.926;2022-08-19T13:21:06;1.90;;;1.58;;
26750;SDS011;14345;48.272;25.926;2022-08-19T13:23:33;3.05;;;1.50;;
26750;SDS011;14345;48.272;25.926;2022-08-19T13:26:01;4.05;;;2.13;;
26750;SDS011;14345;48.272;25.926;2022-08-19T13:28:28;2.97;;;1.63;;
26750;SDS011;14345;48.272;25.926;2022-08-19T13:31:15;2.97;;;1.80;;
26750;SDS011;14345;48.272;25.926;2022-08-19T13:34:00;5.13;;;1.70;;
26750;SDS011;14345;48.272;25.926;2022-08-19T13:36:26;2.42;;;1.98;;
26750;SDS011;14345;48.272;25.926;2022-08-19T13:38:52;7.15;;;6.18;;
26750;SDS011;14345;48.272;25.926;2022-08-19T13:41:19;3.80;;;2.50;;
26750;SDS011;14345;48.272;25.926;2022-08-19T13:43:45;3.35;;;2.65;;
26750;SDS011;14345;48.272;25.926;2022-08-19T13:46:11;3.35;;;2.63;;
26750;SDS011;14345;48.272;25.926;2022-08-19T13:48:39;5.50;;;2.75;;
26750;SDS011;14345;48.272;25.926;2022-08-19T13:51:08;5.38;;;1.92;;
26750;SDS011;14345;48.272;25.926;2022-08-19T13:53:35;2.65;;;1.75;;
26750;SDS011;14345;48.272;25.926;2022-08-19T13:56:06;2.25;;;1.38;;
26750;SDS011;14345;48.272;25.926;2022-08-19T13:58:32;2.95;;;1.48;;
26750;SDS011;14345;48.272;25.926;2022-08-19T14:00:58;1.83;;;1.35;;
26750;SDS011;14345;48.272;25.926;2022-08-19T14:03:25;1.73;;;1.30;;
26750;SDS011;14345;48.272;25.926;2022-08-19T14:05:51;5.28;;;1.75;;
26750;SDS011;14345;48.272;25.926;2022-08-19T14:08:19;2.90;;;1.55;;
26750;SDS011;14345;48.272;25.926;2022-08-19T14:10:45;5.32;;;2.58;;
26750;SDS011;14345;48.272;25.926;2022-08-19T14:13:15;2.47;;;1.80;;
26750;SDS011;14345;48.272;25.926;2022-08-19T14:15:42;2.47;;;1.40;;
26750;SDS011;14345;48.272;25.926;2022-08-19T14:18:08;3.10;;;1.58;;
26750;SDS011;14345;48.272;25.926;2022-08-19T14:20:35;3.67;;;1.63;;
26750;SDS011;14345;48.272;25.926;2022-08-19T14:23:01;3.25;;;1.35;;
26750;SDS011;14345;48.272;25.926;2022-08-19T14:25:28;3.83;;;1.30;;
26750;SDS011;14345;48.272;25.926;2022-08-19T14:27:55;3.53;;;1.75;;
26750;SDS011;14345;48.272;25.926;2022-08-19T14:30:22;3.65;;;1.63;;
26750;SDS011;14345;48.272;25.926;2022-08-19T14:32:50;5.80;;;1.60;;
26750;SDS011;14345;48.272;25.926;2022-08-19T14:35:16;2.00;;;1.42;;
26750;SDS011;14345;48.272;25.926;2022-08-19T14:37:43;3.17;;;1.55;;
26750;SDS011;14345;48.272;25.926;2022-08-19T14:40:10;1.92;;;1.40;;
26750;SDS011;14345;48.272;25.926;2022-08-19T14:42:36;2.85;;;1.58;;
26750;SDS011;14345;48.272;25.926;2022-08-19T14:45:02;2.63;;;1.40;;